createdAt,value
2023-11-25T00:00:57.355Z,77.38
2023-11-25T00:03:24.758Z,76.85
2023-11-25T00:05:51.682Z,77.02
2023-11-25T00:08:18.772Z,76.25
2023-11-25T00:10:45.892Z,76.17
2023-11-25T00:13:13.059Z,75.99
2023-11-25T00:15:40.665Z,76.22
2023-11-25T00:18:09.207Z,76.63
2023-11-25T00:20:38.313Z,76.57
2023-11-25T00:23:05.995Z,76.81
2023-11-25T00:25:33.245Z,76.85
2023-11-25T00:28:01.242Z,78.61
2023-11-25T00:30:28.486Z,79.34
2023-11-25T00:32:56.324Z,79.24
2023-11-25T00:35:23.699Z,79.25
2023-11-25T00:37:50.720Z,78.90
2023-11-25T00:40:18.465Z,79.62
2023-11-25T00:42:47.901Z,80.01
2023-11-25T00:45:17.720Z,80.16
2023-11-25T00:47:44.991Z,80.28
2023-11-25T00:50:12.724Z,80.15
2023-11-25T00:52:40.398Z,80.06
2023-11-25T00:55:08.755Z,79.89
2023-11-25T00:57:36.543Z,80.84
2023-11-25T01:00:11.680Z,81.04
2023-11-25T01:02:39.113Z,81.25
2023-11-25T01:05:06.517Z,82.05
2023-11-25T01:07:33.820Z,82.97
2023-11-25T01:10:00.888Z,83.46
2023-11-25T01:12:27.741Z,83.30
2023-11-25T01:14:55.590Z,84.61
2023-11-25T01:17:24.672Z,85.36
2023-11-25T01:19:51.566Z,86.69
2023-11-25T01:22:18.990Z,87.20
2023-11-25T01:24:46.313Z,88.09
2023-11-25T01:27:14.270Z,88.91
2023-11-25T01:29:41.219Z,88.82
2023-11-25T01:32:08.104Z,88.64
2023-11-25T01:34:35.256Z,88.61
2023-11-25T01:37:02.526Z,88.40
2023-11-25T01:39:29.490Z,88.00
2023-11-25T01:41:56.342Z,88.13
2023-11-25T01:44:23.761Z,87.40
2023-11-25T01:46:53.373Z,85.20
2023-11-25T01:49:22.550Z,84.22
2023-11-25T01:51:52.128Z,83.94
2023-11-25T01:54:19.806Z,83.44
2023-11-25T01:56:51.737Z,82.68
2023-11-25T01:59:20.846Z,82.20
2023-11-25T02:01:48.290Z,81.62
2023-11-25T02:04:15.661Z,81.65
2023-11-25T02:06:42.859Z,82.49
2023-11-25T02:09:10.071Z,82.75
2023-11-25T02:12:03.533Z,83.78
2023-11-25T02:14:31.161Z,84.42
2023-11-25T02:16:58.638Z,84.93
2023-11-25T02:19:26.175Z,85.61
2023-11-25T02:21:54.158Z,85.81
2023-11-25T02:24:21.387Z,86.14
2023-11-25T02:26:49.696Z,86.53
2023-11-25T02:29:16.567Z,87.24
2023-11-25T02:31:44.454Z,88.02
2023-11-25T02:34:12.248Z,87.67
2023-11-25T02:36:39.893Z,86.57
2023-11-25T02:39:07.012Z,85.83
2023-11-25T02:41:35.727Z,85.51
2023-11-25T02:44:02.897Z,84.70
2023-11-25T02:46:29.931Z,83.63
2023-11-25T02:48:57.268Z,83.69
2023-11-25T02:51:24.172Z,83.43
2023-11-25T02:53:51.087Z,82.58
2023-11-25T02:56:18.677Z,81.83
2023-11-25T02:58:45.594Z,81.79
2023-11-25T03:01:15.516Z,81.41
2023-11-25T03:03:48.955Z,80.91
2023-11-25T03:06:17.649Z,80.92
2023-11-25T03:08:45.124Z,81.31
2023-11-25T03:11:17.284Z,80.76
2023-11-25T03:13:44.290Z,80.80
2023-11-25T03:16:12.377Z,80.48
2023-11-25T03:18:39.396Z,80.81
2023-11-25T03:21:07.837Z,80.57
2023-11-25T03:23:34.784Z,80.14
2023-11-25T03:26:01.841Z,79.88
2023-11-25T03:28:29.071Z,79.55
2023-11-25T03:30:56.609Z,79.14
2023-11-25T03:33:23.658Z,79.68
2023-11-25T03:35:50.986Z,79.35
2023-11-25T03:38:17.913Z,79.87
2023-11-25T03:40:44.937Z,79.17
2023-11-25T03:43:11.924Z,79.14
2023-11-25T03:45:38.938Z,79.04
2023-11-25T03:48:07.261Z,79.36
2023-11-25T03:50:34.549Z,78.73
2023-11-25T03:53:02.363Z,78.83
2023-11-25T03:55:29.592Z,79.27
2023-11-25T03:57:56.451Z,78.92
2023-11-25T04:00:24.301Z,79.36
2023-11-25T04:02:52.897Z,79.14
2023-11-25T04:05:20.261Z,79.15
2023-11-25T04:07:47.606Z,79.07
2023-11-25T04:10:15.274Z,79.03
2023-11-25T04:12:50.592Z,79.37
2023-11-25T04:15:21.119Z,78.90
2023-11-25T04:17:48.649Z,78.85
2023-11-25T04:20:16.198Z,79.21
2023-11-25T04:22:49.577Z,79.29
2023-11-25T04:25:17.473Z,79.05
2023-11-25T04:27:48.438Z,79.26
2023-11-25T04:30:17.373Z,79.26
2023-11-25T04:32:46.097Z,79.23
2023-11-25T04:35:15.472Z,79.63
2023-11-25T04:37:47.813Z,79.68
2023-11-25T04:40:16.272Z,79.91
2023-11-25T04:42:43.546Z,80.11
2023-11-25T04:45:18.656Z,80.41
2023-11-25T04:47:46.707Z,80.27
2023-11-25T04:50:14.978Z,80.34
2023-11-25T04:52:42.335Z,80.67
2023-11-25T04:55:13.798Z,81.06
2023-11-25T04:57:41.303Z,81.36
2023-11-25T05:00:12.512Z,81.28
2023-11-25T05:02:40.468Z,82.07
2023-11-25T05:05:09.060Z,82.32
2023-11-25T05:07:37.035Z,82.92
2023-11-25T05:10:08.082Z,83.39
2023-11-25T05:12:35.109Z,83.52
2023-11-25T05:15:02.154Z,83.81
2023-11-25T05:17:30.055Z,83.67
2023-11-25T05:19:57.015Z,83.24
2023-11-25T05:22:23.998Z,83.54
2023-11-25T05:24:50.961Z,83.60
2023-11-25T05:27:17.879Z,84.67
2023-11-25T05:29:45.638Z,85.98
2023-11-25T05:32:14.424Z,87.59
2023-11-25T05:34:42.074Z,88.85
2023-11-25T05:37:12.104Z,89.81
2023-11-25T05:39:42.305Z,90.29
2023-11-25T05:42:09.873Z,89.83
2023-11-25T05:44:36.828Z,89.33
2023-11-25T05:47:06.946Z,89.14
2023-11-25T05:49:34.479Z,88.76
2023-11-25T05:52:01.512Z,88.71
2023-11-25T05:54:28.976Z,88.49
2023-11-25T05:56:56.153Z,88.14
2023-11-25T05:59:23.323Z,88.43
2023-11-25T06:01:50.647Z,88.89
2023-11-25T06:04:21.817Z,88.88
2023-11-25T06:06:49.318Z,91.05
2023-11-25T06:09:16.675Z,90.99
2023-11-25T06:11:43.804Z,89.97
2023-11-25T06:14:14.269Z,88.86
2023-11-25T06:16:44.141Z,88.32
2023-11-25T06:19:11.845Z,87.92
2023-11-25T06:21:41.159Z,87.85
2023-11-25T06:24:09.270Z,87.26
2023-11-25T06:26:36.640Z,86.82
2023-11-25T06:29:04.317Z,86.65
2023-11-25T06:31:33.096Z,85.65
2023-11-25T06:34:01.852Z,85.30
2023-11-25T06:36:33.898Z,84.66
2023-11-25T06:39:00.833Z,83.97
2023-11-25T06:41:28.651Z,83.61
2023-11-25T06:43:55.734Z,83.67
2023-11-25T06:46:25.512Z,83.05
2023-11-25T06:48:54.242Z,82.65
2023-11-25T06:51:21.194Z,82.57
2023-11-25T06:53:48.165Z,82.41
2023-11-25T06:56:21.069Z,81.65
2023-11-25T06:58:48.107Z,81.42
2023-11-25T07:01:21.225Z,81.89
2023-11-25T07:03:48.276Z,81.64
2023-11-25T07:06:18.204Z,81.34
2023-11-25T07:08:48.100Z,80.80
2023-11-25T07:11:15.501Z,80.77
2023-11-25T07:13:43.638Z,80.70
2023-11-25T07:16:13.802Z,80.65
2023-11-25T07:18:44.449Z,81.42
2023-11-25T07:21:12.990Z,80.69
2023-11-25T07:23:41.028Z,81.23
2023-11-25T07:26:08.470Z,80.59
2023-11-25T07:28:37.045Z,80.11
2023-11-25T07:31:05.017Z,80.50
2023-11-25T07:33:32.968Z,79.74
2023-11-25T07:36:00.148Z,79.59
2023-11-25T07:38:27.185Z,79.16
2023-11-25T07:40:54.176Z,79.01
2023-11-25T07:43:21.544Z,78.68
2023-11-25T07:45:48.466Z,78.68
2023-11-25T07:48:15.597Z,79.21
2023-11-25T07:50:50.368Z,77.92
2023-11-25T07:55:50.387Z,77.14
2023-11-25T07:58:17.365Z,76.71
2023-11-25T08:00:44.284Z,77.13
2023-11-25T08:03:11.704Z,76.90
2023-11-25T08:05:38.624Z,76.35
2023-11-25T08:08:05.796Z,75.78
2023-11-25T08:10:36.623Z,75.40
2023-11-25T08:13:04.081Z,75.14
2023-11-25T08:15:32.683Z,74.88
2023-11-25T08:18:00.255Z,73.85
2023-11-25T08:20:27.539Z,73.47
2023-11-25T08:22:54.935Z,72.69
2023-11-25T08:25:22.057Z,72.35
2023-11-25T08:27:52.165Z,71.53
2023-11-25T08:30:19.357Z,72.42
2023-11-25T08:32:46.507Z,71.90
2023-11-25T08:35:13.660Z,71.81
2023-11-25T08:37:42.070Z,71.41
2023-11-25T08:40:29.394Z,70.44
2023-11-25T08:42:57.752Z,70.97
2023-11-25T08:45:25.682Z,70.42
2023-11-25T08:47:52.802Z,71.14
2023-11-25T08:50:20.598Z,70.24
2023-11-25T08:52:50.624Z,70.57
2023-11-25T08:55:19.966Z,69.90
2023-11-25T08:57:47.840Z,70.28
2023-11-25T09:00:21.739Z,70.18
2023-11-25T09:02:52.804Z,69.91
2023-11-25T09:05:24.235Z,69.66
2023-11-25T09:07:57.331Z,68.67
2023-11-25T09:10:26.975Z,67.97
2023-11-25T09:12:54.714Z,67.39
2023-11-25T09:15:22.985Z,67.49
2023-11-25T09:17:50.099Z,67.18
2023-11-25T09:20:18.465Z,66.91
2023-11-25T09:22:46.440Z,67.33
2023-11-25T09:25:13.921Z,67.11
2023-11-25T09:27:41.787Z,67.54
2023-11-25T09:30:13.303Z,67.67
2023-11-25T09:32:41.977Z,66.98
2023-11-25T09:35:12.489Z,67.23
2023-11-25T09:37:40.262Z,66.88
2023-11-25T09:40:08.879Z,67.14
2023-11-25T09:42:35.873Z,67.71
2023-11-25T09:45:03.547Z,67.19
2023-11-25T09:47:30.856Z,67.15
2023-11-25T09:49:57.846Z,66.66
2023-11-25T09:52:29.545Z,66.71
2023-11-25T09:55:00.039Z,65.76
2023-11-25T09:57:34.069Z,65.78
2023-11-25T10:00:07.648Z,65.52
2023-11-25T10:02:37.550Z,65.21
2023-11-25T10:05:06.350Z,64.80
2023-11-25T10:07:33.906Z,63.72
2023-11-25T10:10:02.739Z,64.13
2023-11-25T10:12:31.285Z,62.68
2023-11-25T10:15:00.780Z,62.28
2023-11-25T10:17:28.344Z,62.07
2023-11-25T10:20:20.713Z,62.06
2023-11-25T10:22:49.692Z,61.97
2023-11-25T10:25:21.245Z,62.31
2023-11-25T10:27:49.331Z,61.10
2023-11-25T10:30:16.416Z,61.17
2023-11-25T10:32:44.070Z,60.97
2023-11-25T10:35:11.301Z,60.83
2023-11-25T10:37:42.421Z,60.20
2023-11-25T10:40:18.266Z,61.01
2023-11-25T10:42:46.896Z,60.71
2023-11-25T10:45:18.253Z,60.54
2023-11-25T10:47:45.854Z,60.71
2023-11-25T10:50:14.889Z,60.53
2023-11-25T10:52:44.949Z,59.77
2023-11-25T10:55:12.200Z,60.40
2023-11-25T10:57:39.509Z,59.54
2023-11-25T11:00:12.924Z,60.74
2023-11-25T11:02:52.106Z,61.33
2023-11-25T11:05:33.986Z,61.51
2023-11-25T11:08:24.144Z,61.02
2023-11-25T11:11:07.056Z,60.37
2023-11-25T11:14:16.230Z,61.00
2023-11-25T11:16:49.418Z,61.06
2023-11-25T11:19:20.042Z,61.70
2023-11-25T11:21:52.845Z,61.84
2023-11-25T11:24:25.066Z,61.86
2023-11-25T11:27:16.005Z,61.70
2023-11-25T11:29:50.698Z,60.15
2023-11-25T11:32:22.982Z,60.85
2023-11-25T11:34:50.692Z,60.59
2023-11-25T11:37:18.762Z,60.39
2023-11-25T11:40:01.152Z,59.55
2023-11-25T11:42:40.949Z,60.40
2023-11-25T11:45:17.422Z,61.00
2023-11-25T11:47:51.378Z,61.56
2023-11-25T11:50:20.496Z,62.53
2023-11-25T11:52:56.401Z,62.79
2023-11-25T11:55:38.048Z,63.13
2023-11-25T11:58:15.606Z,63.69
2023-11-25T12:00:53.811Z,63.50
2023-11-25T12:03:21.576Z,63.43
2023-11-25T12:05:48.621Z,62.78
2023-11-25T12:08:15.939Z,62.39
2023-11-25T12:10:43.132Z,62.19
2023-11-25T12:13:12.396Z,61.38
2023-11-25T12:15:40.327Z,61.55
2023-11-25T12:18:07.559Z,61.30
2023-11-25T12:20:35.304Z,61.31
2023-11-25T12:23:10.518Z,61.05
2023-11-25T12:25:38.390Z,61.62
2023-11-25T12:28:12.345Z,61.13
2023-11-25T12:30:41.467Z,61.68
2023-11-25T12:33:09.942Z,60.21
2023-11-25T12:35:46.668Z,60.77
2023-11-25T12:38:16.527Z,60.30
2023-11-25T12:40:47.787Z,61.31
2023-11-25T12:43:15.658Z,62.28
2023-11-25T12:45:48.363Z,61.87
2023-11-25T12:48:29.714Z,62.56
2023-11-25T12:51:09.047Z,62.24
2023-11-25T12:53:36.885Z,62.69
2023-11-25T12:56:04.651Z,62.13
2023-11-25T12:58:32.644Z,61.32
2023-11-25T13:00:59.978Z,61.24
2023-11-25T13:03:34.483Z,61.24
2023-11-25T13:06:11.202Z,61.92
2023-11-25T13:08:41.431Z,63.23
2023-11-25T13:11:10.410Z,64.08
2023-11-25T13:13:38.209Z,64.95
2023-11-25T13:16:06.591Z,65.34
2023-11-25T13:18:36.353Z,65.98
2023-11-25T13:21:06.966Z,66.52
2023-11-25T13:23:35.033Z,66.57
2023-11-25T13:26:02.028Z,66.72
2023-11-25T13:28:29.134Z,66.75
2023-11-25T13:30:56.038Z,66.63
2023-11-25T13:33:23.524Z,66.25
2023-11-25T13:35:50.528Z,67.59
2023-11-25T13:38:17.949Z,67.50
2023-11-25T13:40:45.284Z,68.34
2023-11-25T13:43:14.838Z,68.23
2023-11-25T13:45:44.595Z,68.40
2023-11-25T13:48:13.437Z,68.68
2023-11-25T13:50:41.062Z,68.01
2023-11-25T13:53:08.428Z,68.66
2023-11-25T13:55:39.257Z,69.06
2023-11-25T13:58:08.332Z,69.46
2023-11-25T14:00:35.832Z,69.92
2023-11-25T14:03:03.125Z,70.03
2023-11-25T14:05:32.581Z,70.55
2023-11-25T14:07:59.495Z,70.70
2023-11-25T14:10:26.497Z,70.62
2023-11-25T14:12:53.633Z,70.73
2023-11-25T14:15:20.597Z,70.51
2023-11-25T14:17:48.296Z,70.68
2023-11-25T14:20:18.196Z,69.86
2023-11-25T14:22:45.779Z,70.82
2023-11-25T14:25:32.872Z,70.23
2023-11-25T14:28:03.407Z,69.54
2023-11-25T14:30:34.911Z,69.73
2023-11-25T14:33:05.758Z,69.70
2023-11-25T14:35:38.199Z,69.51
2023-11-25T14:38:07.559Z,69.48
2023-11-25T14:40:40.511Z,69.37
2023-11-25T14:43:07.845Z,68.51
2023-11-25T14:45:36.059Z,68.31
2023-11-25T14:48:04.628Z,67.89
2023-11-25T14:50:31.945Z,66.90
2023-11-25T14:53:01.208Z,66.13
2023-11-25T14:55:28.209Z,66.92
2023-11-25T14:57:55.187Z,65.87
2023-11-25T15:00:24.206Z,65.46
2023-11-25T15:02:51.276Z,65.25
2023-11-25T15:05:18.358Z,65.59
2023-11-25T15:07:47.619Z,65.00
2023-11-25T15:10:15.042Z,64.77
2023-11-25T15:12:41.972Z,64.79
2023-11-25T15:15:10.096Z,64.83
2023-11-25T15:17:37.176Z,64.16
2023-11-25T15:20:05.663Z,64.37
2023-11-25T15:22:33.105Z,64.12
2023-11-25T15:25:00.579Z,64.16
2023-11-25T15:27:27.924Z,63.41
2023-11-25T15:30:01.537Z,63.75
2023-11-25T15:32:28.769Z,63.41
2023-11-25T15:34:55.825Z,62.83
2023-11-25T15:37:23.010Z,61.77
2023-11-25T15:39:50.213Z,62.48
2023-11-25T15:42:17.358Z,62.01
2023-11-25T15:44:44.307Z,61.53
2023-11-25T15:47:11.686Z,61.47
2023-11-25T15:49:38.830Z,61.69
2023-11-25T15:52:06.430Z,61.27
2023-11-25T15:54:33.946Z,61.10
2023-11-25T15:57:01.003Z,60.47
2023-11-25T15:59:30.921Z,60.95
2023-11-25T16:01:58.883Z,61.03
2023-11-25T16:04:26.283Z,59.90
2023-11-25T16:06:55.284Z,59.68
2023-11-25T16:09:22.534Z,59.93
2023-11-25T16:11:50.137Z,59.95
2023-11-25T16:14:17.178Z,59.70
2023-11-25T16:16:44.425Z,59.61
2023-11-25T16:19:11.769Z,59.44
2023-11-25T16:21:39.447Z,59.98
2023-11-25T16:24:08.149Z,59.90
2023-11-25T16:26:35.721Z,59.21
2023-11-25T16:29:03.324Z,59.13
2023-11-25T16:31:30.930Z,58.96
2023-11-25T16:33:57.877Z,58.52
2023-11-25T16:36:24.766Z,58.30
2023-11-25T16:38:51.641Z,58.71
2023-11-25T16:41:22.622Z,58.90
2023-11-25T16:43:49.689Z,58.12
2023-11-25T16:46:18.642Z,57.74
2023-11-25T16:48:53.171Z,58.28
2023-11-25T16:51:25.520Z,57.63
2023-11-25T16:53:52.775Z,57.64
2023-11-25T16:56:19.813Z,56.84
2023-11-25T16:58:47.480Z,57.57
2023-11-25T17:01:14.703Z,57.29
2023-11-25T17:03:42.105Z,57.64
2023-11-25T17:06:11.441Z,57.32
2023-11-25T17:08:38.364Z,57.28
2023-11-25T17:11:05.814Z,57.47
2023-11-25T17:13:32.784Z,58.20
2023-11-25T17:16:01.022Z,58.10
2023-11-25T17:18:27.938Z,57.94
2023-11-25T17:20:54.894Z,57.83
2023-11-25T17:23:22.309Z,58.14
2023-11-25T17:25:49.319Z,57.74
2023-11-25T17:28:16.247Z,58.32
2023-11-25T17:30:43.396Z,58.20
2023-11-25T17:33:14.230Z,57.80
2023-11-25T17:35:41.252Z,57.98
2023-11-25T17:38:08.541Z,57.83
2023-11-25T17:40:36.031Z,58.37
2023-11-25T17:43:03.354Z,58.80
2023-11-25T17:45:30.338Z,58.71
2023-11-25T17:47:57.337Z,59.12
2023-11-25T17:50:25.762Z,59.52
2023-11-25T17:53:03.917Z,59.18
2023-11-25T17:55:36.980Z,59.63
2023-11-25T17:58:03.889Z,59.95
2023-11-25T18:00:31.863Z,59.48
2023-11-25T18:02:59.317Z,59.33
2023-11-25T18:05:26.316Z,59.77
2023-11-25T18:07:55.224Z,60.24
2023-11-25T18:10:22.605Z,60.13
2023-11-25T18:12:49.686Z,60.50
2023-11-25T18:15:16.697Z,60.33
2023-11-25T18:17:44.132Z,60.59
2023-11-25T18:20:12.600Z,60.59
2023-11-25T18:22:42.440Z,60.57
2023-11-25T18:25:12.768Z,60.47
2023-11-25T18:27:40.398Z,60.30
2023-11-25T18:30:09.351Z,60.28
2023-11-25T18:32:37.203Z,60.55
2023-11-25T18:35:05.649Z,60.71
2023-11-25T18:37:32.678Z,60.47
2023-11-25T18:39:59.541Z,61.09
2023-11-25T18:42:27.445Z,61.28
2023-11-25T18:44:54.647Z,65.51
2023-11-25T18:47:21.570Z,71.19
2023-11-25T18:49:48.536Z,75.17
2023-11-25T18:52:15.564Z,77.01
2023-11-25T18:54:45.228Z,77.85
2023-11-25T18:57:12.769Z,78.33
2023-11-25T18:59:39.741Z,77.21
2023-11-25T19:02:06.761Z,77.01
2023-11-25T19:04:33.935Z,77.23
2023-11-25T19:07:01.289Z,76.79
2023-11-25T19:09:28.235Z,77.13
2023-11-25T19:11:55.578Z,77.42
2023-11-25T19:14:22.483Z,77.50
2023-11-25T19:16:49.517Z,77.79
2023-11-25T19:19:16.583Z,78.13
2023-11-25T19:21:43.575Z,77.80
2023-11-25T19:24:11.065Z,77.91
2023-11-25T19:26:44.523Z,77.84
2023-11-25T19:29:11.874Z,78.03
2023-11-25T19:31:38.833Z,78.15
2023-11-25T19:34:06.184Z,78.74
2023-11-25T19:36:33.961Z,78.58
2023-11-25T19:39:00.862Z,78.57
2023-11-25T19:41:27.808Z,78.12
2023-11-25T19:43:55.494Z,78.10
2023-11-25T19:46:22.391Z,78.35
2023-11-25T19:48:49.292Z,78.05
2023-11-25T19:51:16.221Z,78.03
2023-11-25T19:53:50.523Z,78.26
2023-11-25T19:56:20.444Z,78.42
2023-11-25T19:58:47.666Z,78.41
2023-11-25T20:01:15.420Z,78.52
2023-11-25T20:03:42.858Z,78.58
2023-11-25T20:06:09.903Z,78.67
2023-11-25T20:08:36.888Z,77.37
2023-11-25T20:11:04.820Z,75.24
2023-11-25T20:13:31.987Z,74.73
2023-11-25T20:15:59.737Z,75.53
2023-11-25T20:18:26.802Z,76.26
2023-11-25T20:20:53.952Z,77.36
2023-11-25T20:23:21.699Z,79.34
2023-11-25T20:25:49.073Z,80.43
2023-11-25T20:28:16.294Z,81.18
2023-11-25T20:30:44.465Z,81.32
2023-11-25T20:33:11.528Z,81.54
2023-11-25T20:35:38.534Z,81.58
2023-11-25T20:38:05.617Z,81.09
2023-11-25T20:40:32.824Z,81.01
2023-11-25T20:43:00.108Z,81.21
2023-11-25T20:45:26.982Z,80.65
2023-11-25T20:47:54.045Z,81.16
2023-11-25T20:50:21.095Z,81.13
2023-11-25T20:52:48.648Z,81.90
2023-11-25T20:55:16.362Z,82.09
2023-11-25T20:57:43.472Z,82.37
2023-11-25T21:00:12.194Z,82.76
2023-11-25T21:02:40.517Z,82.78
2023-11-25T21:05:08.444Z,82.87
2023-11-25T21:07:35.557Z,82.50
2023-11-25T21:10:02.406Z,81.94
2023-11-25T21:12:29.484Z,80.87
2023-11-25T21:14:56.425Z,79.98
2023-11-25T21:17:23.760Z,78.49
2023-11-25T21:19:52.214Z,77.34
2023-11-25T21:22:22.043Z,76.88
2023-11-25T21:24:49.198Z,75.75
2023-11-25T21:27:16.124Z,75.34
2023-11-25T21:29:45.486Z,75.14
2023-11-25T21:32:15.020Z,75.09
2023-11-25T21:34:42.167Z,74.88
2023-11-25T21:37:09.135Z,74.79
2023-11-25T21:39:36.007Z,74.99
2023-11-25T21:42:02.961Z,74.60
2023-11-25T21:44:31.530Z,75.15
2023-11-25T21:46:59.880Z,74.92
2023-11-25T21:49:30.800Z,75.21
2023-11-25T21:51:57.862Z,75.53
2023-11-25T21:54:24.953Z,75.32
2023-11-25T21:56:51.871Z,75.85
2023-11-25T21:59:21.821Z,76.38
2023-11-25T22:01:49.400Z,76.28
2023-11-25T22:04:22.675Z,76.40
2023-11-25T22:06:50.489Z,76.53
2023-11-25T22:09:18.229Z,77.02
2023-11-25T22:11:46.403Z,77.08
2023-11-25T22:14:13.718Z,77.19
2023-11-25T22:16:40.675Z,77.35
2023-11-25T22:19:07.564Z,77.49
2023-11-25T22:21:35.412Z,77.62
2023-11-25T22:24:03.330Z,77.97
2023-11-25T22:26:39.069Z,78.13
2023-11-25T22:29:06.488Z,78.16
2023-11-25T22:31:36.849Z,78.41
2023-11-25T22:34:05.575Z,78.27
2023-11-25T22:36:36.313Z,78.42
2023-11-25T22:39:03.446Z,78.20
2023-11-25T22:41:32.262Z,78.09
2023-11-25T22:43:59.443Z,78.51
2023-11-25T22:46:26.977Z,78.35
2023-11-25T22:48:56.987Z,78.61
2023-11-25T22:51:25.577Z,78.36
2023-11-25T22:53:53.990Z,78.49
2023-11-25T22:56:22.513Z,78.49
2023-11-25T22:58:49.498Z,78.89
2023-11-25T23:01:28.704Z,78.79
2023-11-25T23:03:56.702Z,78.89
2023-11-25T23:06:24.855Z,78.85
2023-11-25T23:08:53.958Z,78.92
2023-11-25T23:11:21.200Z,78.99
2023-11-25T23:13:50.443Z,79.27
2023-11-25T23:16:18.818Z,79.40
2023-11-25T23:18:45.779Z,79.52
2023-11-25T23:21:12.666Z,79.90
2023-11-25T23:23:46.163Z,79.87
2023-11-25T23:26:17.037Z,80.05
2023-11-25T23:28:44.626Z,80.63
2023-11-25T23:31:11.641Z,80.69
2023-11-25T23:33:40.175Z,81.04
2023-11-25T23:36:11.287Z,81.45
2023-11-25T23:38:38.377Z,81.33
2023-11-25T23:41:06.577Z,81.38
2023-11-25T23:43:34.085Z,81.51
2023-11-25T23:46:04.920Z,81.48
2023-11-25T23:48:32.379Z,82.01
2023-11-25T23:51:06.392Z,82.01
2023-11-25T23:53:33.400Z,82.26
2023-11-25T23:56:00.785Z,82.51
2023-11-25T23:58:30.782Z,83.14
